Redstone, Montana
Current Conditions -  °F | °C
As of 8:53 PM on Thursday 18 Dec 2014 (Local Time) from KOLF Reporting Station
Broken Clouds Broken Clouds  
Wind Chill: 18°   Ceiling: 200
Heat Index: 18°   Visibility: 10mi
Dew Point: 14°   Wind: 0mph
Humidity: 84%   Direction: NA
Pressure: 29.93"   Gusts: NA
Location:  48.82°N, 104.95°W
Report Text: KOLF 190353Z AUTO 00000KT 10SM BKN002 M08/M10 A2993 RMK AO2 SLP168 I1000 T10781100
Loading
Personal Weather Stations






























Interactive Weather Map New forecast layout! Learn more

10-Day Weather Forecast

Advertisements
Track Severe Weather on mobile